createdAt,value
2022-09-15T00:01:34.018Z,18.77
2022-09-15T00:04:37.424Z,18.78
2022-09-15T00:07:40.113Z,18.75
2022-09-15T00:10:58.553Z,18.71
2022-09-15T00:14:03.308Z,18.69
2022-09-15T00:17:06.949Z,18.63
2022-09-15T00:20:10.814Z,18.62
2022-09-15T00:23:15.528Z,18.63
2022-09-15T00:26:21.968Z,18.59
2022-09-15T00:29:24.905Z,18.53
2022-09-15T00:32:27.679Z,18.52
2022-09-15T00:35:30.237Z,18.48
2022-09-15T00:38:34.358Z,18.42
2022-09-15T00:41:39.786Z,18.43
2022-09-15T00:44:47.615Z,18.45
2022-09-15T00:47:51.211Z,18.45
2022-09-15T00:50:56.894Z,18.42
2022-09-15T00:54:02.361Z,18.39
2022-09-15T00:57:09.232Z,18.38
2022-09-15T01:00:16.263Z,18.40
2022-09-15T01:03:19.714Z,18.42
2022-09-15T01:06:39.334Z,18.36
2022-09-15T01:09:47.473Z,18.34
2022-09-15T01:12:50.543Z,18.35
2022-09-15T01:16:16.490Z,18.35
2022-09-15T01:19:34.251Z,18.30
2022-09-15T01:22:45.502Z,18.31
2022-09-15T01:26:04.942Z,18.31
2022-09-15T01:29:38.407Z,18.28
2022-09-15T01:33:06.649Z,18.28
2022-09-15T01:36:14.590Z,18.27
2022-09-15T01:39:23.239Z,18.24
2022-09-15T01:42:27.384Z,18.22
2022-09-15T01:45:33.402Z,18.21
2022-09-15T01:48:36.575Z,18.22
2022-09-15T01:51:39.579Z,18.19
2022-09-15T01:54:49.210Z,18.20
2022-09-15T01:57:52.085Z,18.17
2022-09-15T02:01:06.560Z,18.16
2022-09-15T02:04:22.693Z,18.18
2022-09-15T02:07:50.326Z,18.16
2022-09-15T02:11:21.892Z,18.16
2022-09-15T02:14:57.088Z,18.17
2022-09-15T02:18:03.189Z,18.17
2022-09-15T02:21:16.165Z,18.12
2022-09-15T02:24:25.236Z,18.14
2022-09-15T02:27:34.561Z,18.13
2022-09-15T02:30:41.320Z,18.16
2022-09-15T02:34:11.794Z,18.16
2022-09-15T02:37:14.808Z,18.14
2022-09-15T02:40:18.212Z,18.14
2022-09-15T02:43:21.051Z,18.12
2022-09-15T02:46:24.709Z,18.11
2022-09-15T02:49:27.491Z,18.11
2022-09-15T02:52:30.630Z,18.09
2022-09-15T02:55:33.436Z,18.15
2022-09-15T02:58:36.600Z,18.15
2022-09-15T03:01:39.512Z,18.20
2022-09-15T03:04:42.202Z,18.18
2022-09-15T03:07:44.875Z,18.22
2022-09-15T03:10:47.589Z,18.25
2022-09-15T03:13:54.747Z,18.23
2022-09-15T03:16:58.463Z,18.29
2022-09-15T03:20:01.346Z,18.35
2022-09-15T03:23:04.003Z,18.36
2022-09-15T03:26:06.956Z,18.37
2022-09-15T03:29:09.633Z,18.43
2022-09-15T03:32:12.294Z,18.41
2022-09-15T03:35:15.151Z,18.44
2022-09-15T03:38:18.479Z,18.43
2022-09-15T03:41:21.421Z,18.41
2022-09-15T03:44:24.725Z,18.38
2022-09-15T03:47:27.656Z,18.40
2022-09-15T03:50:30.294Z,18.44
2022-09-15T03:53:34.490Z,18.44
2022-09-15T03:56:37.170Z,18.41
2022-09-15T03:59:39.865Z,18.43
2022-09-15T04:02:42.529Z,18.41
2022-09-15T04:05:45.199Z,18.48
2022-09-15T04:08:49.127Z,18.52
2022-09-15T04:11:51.926Z,18.52
2022-09-15T04:14:54.687Z,18.58
2022-09-15T04:17:57.559Z,18.56
2022-09-15T04:21:01.820Z,18.59
2022-09-15T04:24:06.044Z,18.56
2022-09-15T04:27:08.724Z,18.58
2022-09-15T04:30:11.699Z,18.53
2022-09-15T04:33:14.299Z,18.55
2022-09-15T04:36:19.539Z,18.52
2022-09-15T04:39:22.625Z,18.53
2022-09-15T04:42:26.068Z,18.52
2022-09-15T04:45:28.730Z,18.53
2022-09-15T04:48:32.038Z,18.54
2022-09-15T04:51:34.774Z,18.59
2022-09-15T04:54:37.456Z,18.56
2022-09-15T04:57:40.343Z,18.58
2022-09-15T05:00:43.654Z,18.58
2022-09-15T05:03:47.045Z,18.63
2022-09-15T05:06:49.622Z,18.65
2022-09-15T05:09:53.366Z,18.64
2022-09-15T05:12:56.519Z,18.67
2022-09-15T05:16:06.467Z,18.68
2022-09-15T05:19:10.232Z,18.70
2022-09-15T05:22:12.827Z,18.76
2022-09-15T05:25:15.508Z,18.80
2022-09-15T05:28:18.325Z,18.86
2022-09-15T05:31:34.119Z,18.88
2022-09-15T05:34:37.290Z,18.92
2022-09-15T05:37:39.927Z,18.92
2022-09-15T05:40:42.586Z,18.90
2022-09-15T05:43:49.716Z,18.90
2022-09-15T05:46:52.607Z,18.91
2022-09-15T05:49:55.695Z,18.89
2022-09-15T05:52:58.384Z,18.91
2022-09-15T05:56:04.073Z,18.93
2022-09-15T05:59:06.960Z,18.97
2022-09-15T06:02:11.479Z,19.02
2022-09-15T06:05:14.228Z,19.07
2022-09-15T06:08:17.184Z,19.08
2022-09-15T06:11:22.556Z,19.13
2022-09-15T06:14:25.082Z,19.19
2022-09-15T06:17:29.193Z,19.26
2022-09-15T06:20:32.035Z,19.35
2022-09-15T06:23:35.113Z,19.50
2022-09-15T06:26:37.723Z,19.55
2022-09-15T06:29:40.608Z,19.55
2022-09-15T06:32:47.894Z,19.60
2022-09-15T06:35:51.147Z,19.72
2022-09-15T06:38:53.865Z,19.83
2022-09-15T06:42:02.855Z,19.80
2022-09-15T06:45:06.821Z,19.81
2022-09-15T06:48:23.864Z,19.75
2022-09-15T06:51:31.507Z,19.70
2022-09-15T06:54:34.890Z,19.72
2022-09-15T06:57:37.461Z,19.68
2022-09-15T07:00:40.345Z,19.68
2022-09-15T07:03:44.162Z,19.71
2022-09-15T07:06:47.037Z,19.77
2022-09-15T07:09:50.117Z,19.85
2022-09-15T07:12:52.864Z,20.05
2022-09-15T07:16:00.417Z,20.16
2022-09-15T07:19:04.029Z,20.21
2022-09-15T07:22:07.585Z,20.28
2022-09-15T07:25:16.875Z,20.37
2022-09-15T07:28:19.627Z,20.42
2022-09-15T07:31:25.491Z,20.46
2022-09-15T07:34:31.293Z,20.49
2022-09-15T07:37:37.242Z,20.45
2022-09-15T07:40:39.734Z,20.52
2022-09-15T07:43:53.259Z,20.56
2022-09-15T07:46:55.947Z,20.65
2022-09-15T07:50:01.661Z,20.69
2022-09-15T07:53:05.023Z,20.77
2022-09-15T07:56:08.171Z,20.98
2022-09-15T07:59:11.651Z,21.30
2022-09-15T08:02:20.203Z,21.40
2022-09-15T08:05:28.231Z,21.50
2022-09-15T08:08:30.840Z,21.73
2022-09-15T08:11:33.918Z,21.99
2022-09-15T08:14:36.668Z,22.11
2022-09-15T08:17:39.521Z,22.43
2022-09-15T08:20:43.507Z,22.78
2022-09-15T08:23:50.903Z,22.99
2022-09-15T08:26:54.042Z,22.97
2022-09-15T08:29:56.925Z,22.86
2022-09-15T08:32:59.720Z,22.90
2022-09-15T08:36:05.730Z,23.00
2022-09-15T08:39:08.915Z,22.74
2022-09-15T08:42:16.164Z,22.54
2022-09-15T08:45:24.939Z,22.60
2022-09-15T08:48:34.099Z,22.74
2022-09-15T08:51:48.479Z,22.97
2022-09-15T08:54:52.624Z,23.02
2022-09-15T08:57:55.459Z,23.08
2022-09-15T09:01:25.896Z,23.29
2022-09-15T09:04:48.326Z,23.43
2022-09-15T09:08:02.342Z,23.80
2022-09-15T09:11:35.182Z,24.01
2022-09-15T09:15:03.204Z,23.83
2022-09-15T09:18:13.918Z,23.83
2022-09-15T09:21:22.613Z,23.74
2022-09-15T09:24:42.673Z,23.54
2022-09-15T09:27:46.417Z,23.36
2022-09-15T09:30:49.855Z,23.26
2022-09-15T09:34:15.892Z,23.22
2022-09-15T09:37:18.736Z,23.16
2022-09-15T09:40:21.779Z,23.23
2022-09-15T09:43:27.968Z,23.21
2022-09-15T09:46:31.731Z,23.25
2022-09-15T09:49:38.051Z,23.39
2022-09-15T09:52:40.853Z,23.26
2022-09-15T09:55:45.943Z,23.51
2022-09-15T09:58:48.853Z,23.34
2022-09-15T10:02:11.735Z,23.34
2022-09-15T10:05:19.580Z,23.44
2022-09-15T10:08:23.738Z,23.86
2022-09-15T10:11:49.278Z,24.40
2022-09-15T10:14:54.719Z,24.45
2022-09-15T10:17:57.339Z,25.33
2022-09-15T10:21:01.871Z,24.85
2022-09-15T10:24:24.438Z,24.70
2022-09-15T10:27:35.454Z,24.42
2022-09-15T10:30:38.590Z,24.69
2022-09-15T10:33:45.439Z,24.49
2022-09-15T10:36:48.481Z,24.51
2022-09-15T10:39:56.500Z,24.46
2022-09-15T10:43:38.149Z,24.43
2022-09-15T10:47:15.019Z,24.18
2022-09-15T10:50:45.448Z,24.22
2022-09-15T10:54:07.107Z,24.40
2022-09-15T10:57:21.942Z,23.87
2022-09-15T11:00:25.832Z,23.71
2022-09-15T11:03:45.072Z,23.52
2022-09-15T11:07:12.753Z,23.40
2022-09-15T11:10:22.316Z,23.22
2022-09-15T11:13:33.770Z,23.32
2022-09-15T11:16:57.315Z,23.32
2022-09-15T11:20:19.732Z,23.56
2022-09-15T11:23:35.279Z,24.05
2022-09-15T11:26:51.596Z,23.96
2022-09-15T11:30:06.983Z,23.85
2022-09-15T11:33:16.125Z,23.94
2022-09-15T11:36:33.856Z,24.00
2022-09-15T11:40:32.567Z,24.10
2022-09-15T11:43:46.244Z,24.14
2022-09-15T11:47:19.484Z,24.05
2022-09-15T11:50:33.261Z,23.89
2022-09-15T11:53:41.370Z,23.60
2022-09-15T11:56:45.534Z,23.51
2022-09-15T12:00:05.646Z,23.46
2022-09-15T12:03:35.131Z,23.36
2022-09-15T12:06:51.876Z,23.26
2022-09-15T12:10:03.983Z,23.14
2022-09-15T12:13:08.134Z,23.04
2022-09-15T12:16:11.086Z,22.94
2022-09-15T12:19:19.073Z,22.90
2022-09-15T12:22:32.047Z,22.78
2022-09-15T12:25:56.102Z,22.72
2022-09-15T12:29:27.259Z,22.68
2022-09-15T12:32:35.184Z,22.61
2022-09-15T12:35:39.821Z,22.53
2022-09-15T12:38:48.170Z,22.52
2022-09-15T12:41:56.612Z,22.55
2022-09-15T12:45:03.309Z,22.54
2022-09-15T12:48:12.396Z,22.56
2022-09-15T12:51:24.756Z,22.43
2022-09-15T12:54:33.100Z,22.38
2022-09-15T12:57:36.998Z,22.25
2022-09-15T13:01:13.887Z,22.13
2022-09-15T13:04:07.730Z,22.13
2022-09-15T13:07:16.519Z,22.00
2022-09-15T13:10:28.282Z,21.87
2022-09-15T13:13:40.850Z,21.73
2022-09-15T13:16:48.925Z,21.59
2022-09-15T13:20:00.228Z,21.44
2022-09-15T13:23:03.808Z,21.30
2022-09-15T13:26:12.973Z,21.06
2022-09-15T13:29:16.419Z,20.99
2022-09-15T13:32:46.699Z,20.67
2022-09-15T13:35:52.521Z,20.43
2022-09-15T13:39:32.687Z,20.07
2022-09-15T13:43:09.628Z,20.05
2022-09-15T13:46:33.507Z,20.07
2022-09-15T13:49:39.452Z,20.00
2022-09-15T13:52:51.130Z,19.93
2022-09-15T13:55:55.733Z,19.86
2022-09-15T13:59:10.229Z,19.61
2022-09-15T14:02:15.272Z,19.52
2022-09-15T14:05:18.541Z,19.54
2022-09-15T14:08:33.430Z,19.61
2022-09-15T14:11:37.261Z,19.65
2022-09-15T14:14:45.708Z,19.60
2022-09-15T14:17:48.503Z,19.60
2022-09-15T14:21:02.377Z,19.61
2022-09-15T14:24:18.145Z,19.49
2022-09-15T14:27:29.775Z,19.29
2022-09-15T14:30:32.546Z,19.23
2022-09-15T14:33:40.484Z,19.25
2022-09-15T14:36:43.216Z,19.37
2022-09-15T14:39:50.532Z,20.04
2022-09-15T14:42:53.256Z,20.80
2022-09-15T14:46:04.538Z,20.61
2022-09-15T14:49:11.679Z,20.38
2022-09-15T14:52:29.331Z,20.15
2022-09-15T14:55:52.826Z,20.82
2022-09-15T14:59:08.717Z,20.75
2022-09-15T15:02:27.872Z,20.97
2022-09-15T15:05:37.909Z,21.31
2022-09-15T15:08:55.621Z,20.84
2022-09-15T15:12:02.092Z,20.49
2022-09-15T15:15:05.921Z,20.31
2022-09-15T15:18:32.638Z,20.27
2022-09-15T15:21:36.535Z,20.18
2022-09-15T15:24:44.445Z,20.25
2022-09-15T15:27:52.775Z,20.24
2022-09-15T15:31:06.761Z,20.18
2022-09-15T15:34:24.024Z,20.10
2022-09-15T15:37:30.415Z,20.12
2022-09-15T15:40:33.628Z,20.09
2022-09-15T15:43:36.445Z,20.13
2022-09-15T15:46:56.018Z,20.20
2022-09-15T15:50:14.234Z,20.18
2022-09-15T15:53:17.107Z,20.16
2022-09-15T15:56:24.055Z,21.33
2022-09-15T15:59:26.849Z,21.86
2022-09-15T16:02:29.381Z,21.99
2022-09-15T16:05:32.429Z,21.56
2022-09-15T16:08:40.889Z,21.17
2022-09-15T16:11:43.488Z,21.03
2022-09-15T16:14:46.499Z,20.93
2022-09-15T16:17:49.644Z,20.82
2022-09-15T16:20:53.022Z,20.64
2022-09-15T16:23:55.654Z,20.35
2022-09-15T16:26:58.709Z,20.31
2022-09-15T16:30:03.410Z,20.26
2022-09-15T16:33:06.848Z,20.20
2022-09-15T16:36:14.438Z,20.07
2022-09-15T16:39:17.031Z,19.96
2022-09-15T16:42:19.639Z,19.90
2022-09-15T16:45:39.767Z,19.77
2022-09-15T16:48:44.353Z,19.57
2022-09-15T16:51:46.864Z,19.31
2022-09-15T16:54:49.521Z,19.22
2022-09-15T16:57:52.095Z,19.15
2022-09-15T17:00:56.161Z,19.14
2022-09-15T17:03:58.885Z,19.06
2022-09-15T17:07:01.622Z,19.04
2022-09-15T17:10:04.599Z,19.01
2022-09-15T17:13:08.673Z,19.01
2022-09-15T17:16:14.038Z,18.98
2022-09-15T17:19:17.148Z,18.95
2022-09-15T17:22:19.682Z,18.93
2022-09-15T17:25:35.128Z,18.90
2022-09-15T17:28:38.039Z,18.82
2022-09-15T17:31:40.838Z,18.77
2022-09-15T17:34:46.544Z,18.75
2022-09-15T17:37:50.309Z,18.72
2022-09-15T17:40:56.658Z,18.70
2022-09-15T17:43:59.954Z,18.69
2022-09-15T17:47:03.199Z,18.64
2022-09-15T17:50:06.483Z,18.61
2022-09-15T17:53:15.114Z,18.57
2022-09-15T17:56:17.919Z,18.53
2022-09-15T17:59:20.468Z,18.52
2022-09-15T18:02:23.913Z,18.52
2022-09-15T18:05:30.933Z,18.51
2022-09-15T18:08:34.556Z,18.50
2022-09-15T18:11:37.127Z,18.47
2022-09-15T18:14:39.894Z,18.46
2022-09-15T18:17:43.325Z,18.43
2022-09-15T18:20:47.316Z,18.40
2022-09-15T18:23:50.101Z,18.38
2022-09-15T18:26:54.306Z,18.39
2022-09-15T18:30:00.088Z,18.36
2022-09-15T18:33:03.167Z,18.33
2022-09-15T18:36:07.559Z,18.29
2022-09-15T18:39:12.111Z,18.31
2022-09-15T18:42:14.810Z,18.34
2022-09-15T18:45:18.498Z,18.31
2022-09-15T18:48:25.952Z,18.30
2022-09-15T18:51:34.950Z,18.25
2022-09-15T18:54:53.672Z,18.25
2022-09-15T18:58:00.773Z,18.25
2022-09-15T19:01:04.807Z,18.23
2022-09-15T19:04:07.622Z,18.21
2022-09-15T19:07:11.574Z,18.27
2022-09-15T19:10:17.715Z,18.30
2022-09-15T19:13:20.741Z,18.28
2022-09-15T19:16:34.632Z,18.29
2022-09-15T19:19:43.623Z,18.26
2022-09-15T19:22:47.834Z,18.26
2022-09-15T19:26:01.801Z,18.20
2022-09-15T19:29:05.140Z,18.18
2022-09-15T19:32:10.978Z,18.13
2022-09-15T19:35:13.724Z,18.08
2022-09-15T19:38:16.196Z,17.97
2022-09-15T19:41:18.867Z,17.91
2022-09-15T19:44:21.902Z,17.86
2022-09-15T19:47:24.418Z,17.80
2022-09-15T19:50:27.935Z,17.75
2022-09-15T19:53:30.449Z,17.73
2022-09-15T19:56:33.502Z,17.65
2022-09-15T19:59:36.481Z,17.59
2022-09-15T20:02:39.831Z,17.55
2022-09-15T20:05:42.334Z,17.53
2022-09-15T20:08:47.125Z,17.48
2022-09-15T20:11:49.614Z,17.41
2022-09-15T20:14:52.289Z,17.38
2022-09-15T20:17:57.710Z,17.30
2022-09-15T20:21:03.078Z,17.27
2022-09-15T20:24:06.000Z,17.23
2022-09-15T20:27:09.020Z,17.18
2022-09-15T20:30:12.000Z,17.10
2022-09-15T20:33:14.507Z,17.01
2022-09-15T20:36:23.504Z,16.94
2022-09-15T20:39:26.322Z,16.89
2022-09-15T20:42:28.830Z,16.88
2022-09-15T20:45:36.480Z,16.83
2022-09-15T20:48:42.633Z,16.79
2022-09-15T20:51:48.859Z,16.75
2022-09-15T20:54:51.948Z,16.79
2022-09-15T20:57:54.742Z,16.65
2022-09-15T21:01:11.858Z,16.62
2022-09-15T21:04:14.928Z,16.59
2022-09-15T21:07:17.443Z,16.57
2022-09-15T21:10:20.430Z,16.60
2022-09-15T21:13:23.251Z,16.58
2022-09-15T21:16:28.028Z,16.55
2022-09-15T21:19:31.201Z,16.51
2022-09-15T21:22:33.756Z,16.49
2022-09-15T21:25:36.194Z,16.44
2022-09-15T21:28:43.556Z,16.40
2022-09-15T21:31:46.502Z,16.37
2022-09-15T21:34:49.042Z,16.34
2022-09-15T21:37:51.645Z,16.32
2022-09-15T21:40:54.226Z,16.31
2022-09-15T21:43:59.194Z,16.30
2022-09-15T21:47:01.727Z,16.32
2022-09-15T21:50:04.455Z,16.34
2022-09-15T21:53:07.600Z,16.44
2022-09-15T21:56:12.045Z,16.48
2022-09-15T21:59:14.588Z,16.50
2022-09-15T22:02:17.484Z,16.49
2022-09-15T22:05:20.022Z,16.49
2022-09-15T22:08:22.723Z,16.47
2022-09-15T22:11:28.497Z,16.49
2022-09-15T22:14:31.387Z,16.47
2022-09-15T22:17:33.951Z,16.42
2022-09-15T22:20:36.566Z,16.34
2022-09-15T22:23:43.039Z,16.31
2022-09-15T22:26:45.524Z,16.28
2022-09-15T22:29:51.799Z,16.29
2022-09-15T22:32:54.393Z,16.29
2022-09-15T22:35:58.198Z,16.26
2022-09-15T22:39:04.138Z,16.28
2022-09-15T22:42:07.217Z,16.30
2022-09-15T22:45:11.705Z,16.33
2022-09-15T22:48:14.491Z,16.36
2022-09-15T22:51:17.571Z,16.33
2022-09-15T22:54:20.253Z,16.35
2022-09-15T22:57:22.761Z,16.34
2022-09-15T23:00:25.414Z,16.37
2022-09-15T23:03:28.027Z,16.36
2022-09-15T23:06:33.033Z,16.35
2022-09-15T23:09:36.212Z,16.31
2022-09-15T23:12:41.704Z,16.25
2022-09-15T23:15:44.264Z,16.22
2022-09-15T23:18:46.929Z,16.23
2022-09-15T23:21:49.574Z,16.24
2022-09-15T23:24:52.104Z,16.22
2022-09-15T23:27:54.588Z,16.21
2022-09-15T23:30:58.759Z,16.20
2022-09-15T23:34:02.129Z,16.19
2022-09-15T23:37:04.615Z,16.14
2022-09-15T23:40:07.454Z,16.15
2022-09-15T23:43:11.628Z,16.17
2022-09-15T23:46:14.744Z,16.16
2022-09-15T23:49:18.841Z,16.14
2022-09-15T23:52:21.967Z,16.12
2022-09-15T23:55:24.890Z,16.12
2022-09-15T23:58:27.551Z,16.08
